Time,TemperatureF,DewpointF,PressureIn,WindDirection,WindDirectionDegrees,WindSpeedMPH,WindSpeedGustMPH,Humidity,HourlyPrecipIn,Conditions,Clouds,dailyrainin,SoftwareType,DateUTC
2013-07-24 00:11:00,61.0,56.0,-100.00,ENE,75,3.0,4.0,82,0.00,,,-99.99,,2013-07-24 05:11:00,
2013-07-24 00:32:00,61.0,56.0,-100.00,East,85,4.0,6.0,82,0.00,,,-99.99,,2013-07-24 05:32:00,
2013-07-24 00:43:00,61.0,56.0,-100.00,East,80,4.0,6.0,83,0.00,,,-99.99,,2013-07-24 05:43:00,
2013-07-24 00:52:00,61.0,56.0,-100.00,ESE,105,4.0,6.0,83,0.00,,,-99.99,,2013-07-24 05:52:00,
2013-07-24 01:11:00,61.0,56.0,-100.00,SE,125,3.0,5.0,83,0.00,,,-99.99,,2013-07-24 06:11:00,
2013-07-24 01:34:00,61.0,56.0,-100.00,ESE,120,4.0,6.0,83,0.00,,,-99.99,,2013-07-24 06:34:00,
2013-07-24 01:43:00,61.0,56.0,-100.00,ESE,110,4.0,6.0,83,0.00,,,-99.99,,2013-07-24 06:43:00,
2013-07-24 02:12:00,60.0,55.0,-100.00,East,80,2.0,4.0,82,0.00,,,-99.99,,2013-07-24 07:12:00,
2013-07-24 02:32:00,60.0,55.0,-100.00,ENE,70,1.0,1.0,83,0.00,,,-99.99,,2013-07-24 07:32:00,
2013-07-24 02:43:00,60.0,55.0,-100.00,NE,45,1.0,2.0,84,0.00,,,-99.99,,2013-07-24 07:43:00,
2013-07-24 03:02:00,59.0,54.0,-100.00,ENE,75,4.0,4.0,85,0.00,,,-99.99,,2013-07-24 08:02:00,
2013-07-24 03:32:00,58.0,54.0,-100.00,ESE,120,2.0,3.0,86,0.00,,,-99.99,,2013-07-24 08:32:00,
2013-07-24 03:43:00,59.0,55.0,-100.00,ESE,105,6.0,7.0,86,0.00,,,-99.99,,2013-07-24 08:43:00,
2013-07-24 04:22:00,58.0,54.0,-100.00,SSE,150,2.0,6.0,85,0.00,,,-99.99,,2013-07-24 09:22:00,
2013-07-24 04:32:00,58.0,54.0,-100.00,SSE,150,4.0,6.0,85,0.00,,,-99.99,,2013-07-24 09:32:00,
2013-07-24 04:43:00,58.0,53.0,-100.00,SSE,155,3.0,4.0,85,0.00,,,-99.99,,2013-07-24 09:43:00,
2013-07-24 05:33:00,58.0,54.0,-100.00,ESE,105,3.0,5.0,85,0.00,,,-99.99,,2013-07-24 10:33:00,
2013-07-24 05:43:00,57.0,53.0,-100.00,ESE,110,2.0,3.0,85,0.00,,,-99.99,,2013-07-24 10:43:00,
2013-07-24 06:12:00,57.0,53.0,-100.00,ESE,105,2.0,3.0,86,0.00,,,-99.99,,2013-07-24 11:12:00,
2013-07-24 06:32:00,57.0,53.0,-100.00,East,100,2.0,3.0,86,0.00,,,-99.99,,2013-07-24 11:32:00,
2013-07-24 06:43:00,58.0,53.0,-100.00,ENE,70,1.0,2.0,86,0.00,,,-99.99,,2013-07-24 11:43:00,
2013-07-24 07:02:00,58.0,54.0,-100.00,East,95,1.0,2.0,86,0.00,,,-99.99,,2013-07-24 12:02:00,
2013-07-24 07:42:00,61.0,56.0,-100.00,SE,125,2.0,5.0,84,0.00,,,-99.99,,2013-07-24 12:42:00,
2013-07-24 07:52:00,61.0,56.0,-100.00,ESE,105,5.0,7.0,83,0.00,,,-99.99,,2013-07-24 12:52:00,
2013-07-24 08:12:00,64.0,57.0,-100.00,SE,135,2.0,6.0,78,0.00,,,-99.99,,2013-07-24 13:12:00,
2013-07-24 08:32:00,64.0,55.0,-100.00,SE,145,6.0,8.0,71,0.00,,,-99.99,,2013-07-24 13:32:00,
2013-07-24 08:43:00,65.0,55.0,-100.00,SSE,150,4.0,9.0,69,0.00,,,-99.99,,2013-07-24 13:43:00,
2013-07-24 09:12:00,66.0,55.0,-100.00,SE,125,4.0,10.0,66,0.00,,,-99.99,,2013-07-24 14:12:00,
2013-07-24 09:22:00,66.0,54.0,-100.00,SE,130,6.0,9.0,65,0.00,,,-99.99,,2013-07-24 14:22:00,
2013-07-24 09:32:00,67.0,54.0,-100.00,SSE,160,4.0,9.0,64,0.00,,,-99.99,,2013-07-24 14:32:00,
2013-07-24 09:43:00,68.0,54.0,-100.00,East,85,2.0,9.0,60,0.00,,,-99.99,,2013-07-24 14:43:00,
2013-07-24 09:55:00,68.0,52.0,-100.00,ESE,110,6.0,9.0,57,0.00,,,-99.99,,2013-07-24 14:55:00,
2013-07-24 10:02:00,68.0,52.0,-100.00,ESE,110,6.0,9.0,57,0.00,,,-99.99,,2013-07-24 15:02:00,
2013-07-24 10:12:00,68.0,52.0,-100.00,ENE,70,4.0,9.0,57,0.00,,,-99.99,,2013-07-24 15:12:00,
2013-07-24 10:22:00,68.0,52.0,-100.00,East,90,6.0,10.0,55,0.00,,,-99.99,,2013-07-24 15:22:00,
2013-07-24 10:33:00,69.0,51.0,-100.00,SE,125,4.0,8.0,54,0.00,,,-99.99,,2013-07-24 15:33:00,
2013-07-24 10:43:00,69.0,51.0,-100.00,East,85,7.0,10.0,53,0.00,,,-99.99,,2013-07-24 15:43:00,
2013-07-24 10:52:00,69.0,50.0,-100.00,ENE,70,6.0,9.0,52,0.00,,,-99.99,,2013-07-24 15:52:00,
2013-07-24 11:32:00,70.0,50.0,-100.00,ENE,65,5.0,9.0,48,0.00,,,-99.99,,2013-07-24 16:32:00,
2013-07-24 11:43:00,70.0,50.0,-100.00,ENE,60,4.0,9.0,48,0.00,,,-99.99,,2013-07-24 16:43:00,
2013-07-24 12:33:00,71.0,51.0,-100.00,NNE,15,6.0,9.0,49,0.00,,,-99.99,,2013-07-24 17:33:00,
2013-07-24 12:43:00,70.0,50.0,-100.00,ESE,105,4.0,10.0,49,0.00,,,-99.99,,2013-07-24 17:43:00,
2013-07-24 13:33:00,74.0,51.0,-100.00,ESE,115,4.0,11.0,45,0.00,,,-99.99,,2013-07-24 18:33:00,
2013-07-24 13:43:00,72.0,49.0,-100.00,ENE,70,7.0,9.0,45,0.00,,,-99.99,,2013-07-24 18:43:00,
2013-07-24 13:52:00,71.0,51.0,-100.00,ENE,75,3.0,9.0,47,0.00,,,-99.99,,2013-07-24 18:52:00,
2013-07-24 14:02:00,74.0,52.0,-100.00,NE,55,6.0,8.0,45,0.00,,,-99.99,,2013-07-24 19:02:00,
2013-07-24 14:12:00,74.0,51.0,-100.00,North,0,4.0,9.0,45,0.00,,,-99.99,,2013-07-24 19:12:00,
2013-07-24 14:32:00,74.0,50.0,-100.00,East,100,5.0,9.0,43,0.00,,,-99.99,,2013-07-24 19:32:00,
2013-07-24 14:43:00,72.0,49.0,-100.00,ENE,75,8.0,10.0,44,0.00,,,-99.99,,2013-07-24 19:43:00,
2013-07-24 15:02:00,73.0,50.0,-100.00,ESE,110,7.0,10.0,43,0.00,,,-99.99,,2013-07-24 20:02:00,
2013-07-24 15:13:00,75.0,49.0,-100.00,NE,50,2.0,6.0,40,0.00,,,-99.99,,2013-07-24 20:13:00,
2013-07-24 15:23:00,75.0,49.0,-100.00,NE,50,2.0,6.0,40,0.00,,,-99.99,,2013-07-24 20:23:00,
2013-07-24 15:32:00,74.0,49.0,-100.00,NE,55,3.0,7.0,41,0.00,,,-99.99,,2013-07-24 20:32:00,
2013-07-24 15:43:00,76.0,50.0,-100.00,WSW,240,1.0,6.0,39,0.00,,,-99.99,,2013-07-24 20:43:00,
2013-07-24 15:52:00,77.0,50.0,-100.00,WNW,300,4.0,7.0,38,0.00,,,-99.99,,2013-07-24 20:52:00,
2013-07-24 16:03:00,75.0,48.0,-100.00,ENE,75,4.0,7.0,38,0.00,,,-99.99,,2013-07-24 21:03:00,
2013-07-24 16:12:00,74.0,48.0,-100.00,NE,40,5.0,9.0,40,0.00,,,-99.99,,2013-07-24 21:12:00,
2013-07-24 16:22:00,75.0,49.0,-100.00,NE,45,3.0,6.0,40,0.00,,,-99.99,,2013-07-24 21:22:00,
2013-07-24 16:32:00,76.0,49.0,-100.00,North,5,2.0,6.0,39,0.00,,,-99.99,,2013-07-24 21:32:00,
2013-07-24 16:43:00,76.0,49.0,-100.00,North,350,2.0,5.0,38,0.00,,,-99.99,,2013-07-24 21:43:00,
2013-07-24 17:12:00,75.0,49.0,-100.00,North,5,1.0,7.0,40,0.00,,,-99.99,,2013-07-24 22:12:00,
2013-07-24 17:32:00,75.0,48.0,-100.00,North,5,2.0,4.0,38,0.00,,,-99.99,,2013-07-24 22:32:00,
2013-07-24 17:43:00,75.0,48.0,-100.00,North,0,2.0,6.0,39,0.00,,,-99.99,,2013-07-24 22:43:00,
2013-07-24 18:32:00,74.0,49.0,-100.00,NNE,30,2.0,4.0,42,0.00,,,-99.99,,2013-07-24 23:32:00,
2013-07-24 18:43:00,74.0,49.0,-100.00,NE,35,1.0,2.0,42,0.00,,,-99.99,,2013-07-24 23:43:00,
2013-07-24 18:52:00,74.0,51.0,-100.00,North,10,1.0,4.0,44,0.00,,,-99.99,,2013-07-24 23:52:00,
2013-07-24 19:33:00,72.0,53.0,-100.00,ENE,70,1.0,2.0,50,0.00,,,-99.99,,2013-07-25 00:33:00,
2013-07-24 19:43:00,72.0,53.0,-100.00,ENE,60,1.0,2.0,50,0.00,,,-99.99,,2013-07-25 00:43:00,
2013-07-24 19:53:00,72.0,53.0,-100.00,NE,45,1.0,2.0,51,0.00,,,-99.99,,2013-07-25 00:53:00,
2013-07-24 20:32:00,71.0,54.0,-100.00,East,85,2.0,2.0,54,0.00,,,-99.99,,2013-07-25 01:32:00,
2013-07-24 20:43:00,71.0,54.0,-100.00,ESE,110,0.0,3.0,54,0.00,,,-99.99,,2013-07-25 01:43:00,
2013-07-24 20:53:00,71.0,54.0,-100.00,NE,45,0.0,2.0,54,0.00,,,-99.99,,2013-07-25 01:53:00,
2013-07-24 21:12:00,70.0,52.0,-100.00,South,175,0.0,2.0,53,0.00,,,-99.99,,2013-07-25 02:12:00,
2013-07-24 21:22:00,70.0,52.0,-100.00,South,175,0.0,2.0,53,0.00,,,-99.99,,2013-07-25 02:22:00,
2013-07-24 21:33:00,70.0,52.0,-100.00,North,5,0.0,2.0,52,0.00,,,-99.99,,2013-07-25 02:33:00,
2013-07-24 22:16:00,69.0,51.0,-100.00,East,85,2.0,2.0,52,0.00,,,-99.99,,2013-07-25 03:16:00,
2013-07-24 22:44:00,66.0,52.0,-100.00,SW,220,2.0,3.0,60,0.00,,,-99.99,,2013-07-25 03:44:00,
2013-07-24 23:12:00,66.0,54.0,-100.00,SSW,210,3.0,5.0,63,0.00,,,-99.99,,2013-07-25 04:12:00,
2013-07-24 23:22:00,66.0,54.0,-100.00,SSW,210,3.0,5.0,63,0.00,,,-99.99,,2013-07-25 04:22:00,
2013-07-24 23:32:00,66.0,53.0,-100.00,SW,230,1.0,3.0,63,0.00,,,-99.99,,2013-07-25 04:32:00,
2013-07-24 23:43:00,66.0,53.0,-100.00,SW,230,1.0,3.0,63,0.00,,,-99.99,,2013-07-25 04:43:00,